createdAt,value
2017-06-20T00:01:55.466Z,100962
2017-06-20T00:04:23.662Z,100954
2017-06-20T00:06:52.361Z,100950
2017-06-20T00:09:20.636Z,100960
2017-06-20T00:11:48.830Z,100953
2017-06-20T00:14:17.371Z,100952
2017-06-20T00:16:45.561Z,100960
2017-06-20T00:19:13.736Z,100949
2017-06-20T00:21:42.418Z,100943
2017-06-20T00:24:10.612Z,100942
2017-06-20T00:26:38.811Z,100939
2017-06-20T00:29:07.563Z,100945
2017-06-20T00:31:35.743Z,100942
2017-06-20T00:34:03.920Z,100943
2017-06-20T00:36:32.566Z,100939
2017-06-20T00:39:00.763Z,100943
2017-06-20T00:41:29.118Z,100946
2017-06-20T00:43:58.690Z,100941
2017-06-20T00:46:26.920Z,100940
2017-06-20T00:48:55.155Z,100937
2017-06-20T00:51:23.702Z,100944
2017-06-20T00:53:51.890Z,100944
2017-06-20T00:56:20.104Z,100940
2017-06-20T00:58:48.725Z,100948
2017-06-20T01:01:16.959Z,100936
2017-06-20T01:03:45.144Z,100938
2017-06-20T01:06:13.777Z,100938
2017-06-20T01:08:41.989Z,100937
2017-06-20T01:11:10.182Z,100936
2017-06-20T01:13:38.781Z,100937
2017-06-20T01:16:07.032Z,100933
2017-06-20T01:18:35.199Z,100927
2017-06-20T01:21:03.726Z,100934
2017-06-20T01:23:31.926Z,100934
2017-06-20T01:26:00.901Z,100934
2017-06-20T01:28:29.572Z,100925
2017-06-20T01:30:57.748Z,100927
2017-06-20T01:33:25.944Z,100923
2017-06-20T01:35:54.444Z,100926
2017-06-20T01:38:22.607Z,100926
2017-06-20T01:40:51.534Z,100933
2017-06-20T01:43:20.159Z,100934
2017-06-20T01:45:48.357Z,100931
2017-06-20T01:48:17.386Z,100918
2017-06-20T01:50:45.914Z,100917
2017-06-20T01:53:14.101Z,100917
2017-06-20T01:55:43.039Z,100912
2017-06-20T01:58:11.640Z,100918
2017-06-20T02:00:39.816Z,100919
2017-06-20T02:03:08.067Z,100911
2017-06-20T02:05:36.708Z,100917
2017-06-20T02:08:04.863Z,100917
2017-06-20T02:10:33.016Z,100925
2017-06-20T02:13:01.807Z,100923
2017-06-20T02:15:29.989Z,100924
2017-06-20T02:17:58.152Z,100925
2017-06-20T02:20:26.833Z,100923
2017-06-20T02:22:55.005Z,100934
2017-06-20T02:25:23.213Z,100928
2017-06-20T02:27:51.879Z,100927
2017-06-20T02:30:20.042Z,100925
2017-06-20T02:32:48.315Z,100932
2017-06-20T02:35:16.938Z,100933
2017-06-20T02:37:45.144Z,100929
2017-06-20T02:40:13.351Z,100933
2017-06-20T02:42:41.928Z,100933
2017-06-20T02:45:10.122Z,100938
2017-06-20T02:47:38.313Z,100938
2017-06-20T02:50:07.591Z,100945
2017-06-20T02:52:35.816Z,100942
2017-06-20T02:55:03.992Z,100943
2017-06-20T02:57:32.616Z,100940
2017-06-20T03:00:00.793Z,100939
2017-06-20T03:02:29.005Z,100934
2017-06-20T03:04:57.622Z,100942
2017-06-20T03:07:25.823Z,100940
2017-06-20T03:09:54.030Z,100942
2017-06-20T03:12:22.659Z,100941
2017-06-20T03:14:50.844Z,100935
2017-06-20T03:17:19.030Z,100935
2017-06-20T03:19:47.667Z,100934
2017-06-20T03:22:15.840Z,100933
2017-06-20T03:24:44.022Z,100940
2017-06-20T03:27:12.687Z,100932
2017-06-20T03:29:40.858Z,100935
2017-06-20T03:32:09.017Z,100930
2017-06-20T03:34:37.591Z,100939
2017-06-20T03:37:06.543Z,100934
2017-06-20T03:39:34.722Z,100936
2017-06-20T03:42:03.332Z,100942
2017-06-20T03:44:31.528Z,100941
2017-06-20T03:46:59.823Z,100943
2017-06-20T03:49:28.409Z,100940
2017-06-20T03:51:56.604Z,100937
2017-06-20T03:54:24.786Z,100946
2017-06-20T03:56:53.493Z,100946
2017-06-20T03:59:22.426Z,100942
2017-06-20T04:01:50.854Z,100943
2017-06-20T04:04:19.358Z,100945
2017-06-20T04:06:48.290Z,100936
2017-06-20T04:09:16.491Z,100944
2017-06-20T04:11:45.223Z,100945
2017-06-20T04:14:13.392Z,100957
2017-06-20T04:16:41.568Z,100937
2017-06-20T04:19:10.152Z,100946
2017-06-20T04:21:44.051Z,100941
2017-06-20T04:24:12.656Z,100944
2017-06-20T04:26:40.870Z,100942
2017-06-20T04:29:09.043Z,100948
2017-06-20T04:31:37.620Z,100955
2017-06-20T04:34:05.846Z,100954
2017-06-20T04:36:34.022Z,100957
2017-06-20T04:39:02.550Z,100950
2017-06-20T04:41:30.715Z,100954
2017-06-20T04:43:58.910Z,100952
2017-06-20T04:46:27.477Z,100956
2017-06-20T04:48:55.645Z,100950
2017-06-20T04:51:23.861Z,100954
2017-06-20T04:53:53.229Z,100961
2017-06-20T04:56:21.406Z,100954
2017-06-20T04:58:49.590Z,100949
2017-06-20T05:01:18.166Z,100959
2017-06-20T05:03:46.383Z,100957
2017-06-20T05:06:14.553Z,100959
2017-06-20T05:08:43.162Z,100960
2017-06-20T05:11:11.354Z,100964
2017-06-20T05:13:39.532Z,100968
2017-06-20T05:16:08.348Z,100967
2017-06-20T05:18:36.548Z,100973
2017-06-20T05:21:04.751Z,100973
2017-06-20T05:23:33.293Z,100975
2017-06-20T05:26:01.469Z,100982
2017-06-20T05:28:29.656Z,100985
2017-06-20T05:30:58.284Z,100973
2017-06-20T05:33:26.469Z,100977
2017-06-20T05:35:54.694Z,100981
2017-06-20T05:38:23.294Z,100981
2017-06-20T05:40:51.557Z,100974
2017-06-20T05:43:19.750Z,100981
2017-06-20T05:45:48.298Z,100975
2017-06-20T05:48:16.507Z,100980
2017-06-20T05:50:44.702Z,100973
2017-06-20T05:53:13.402Z,100981
2017-06-20T05:55:42.399Z,100987
2017-06-20T05:58:10.710Z,100981
2017-06-20T06:00:39.324Z,100985
2017-06-20T06:03:07.508Z,100988
2017-06-20T06:05:35.686Z,100988
2017-06-20T06:08:04.223Z,100988
2017-06-20T06:10:32.401Z,100990
2017-06-20T06:13:00.589Z,100991
2017-06-20T06:15:29.169Z,100996
2017-06-20T06:17:58.285Z,101002
2017-06-20T06:20:26.477Z,101007
2017-06-20T06:22:55.830Z,101004
2017-06-20T06:25:23.994Z,101017
2017-06-20T06:27:52.259Z,101012
2017-06-20T06:30:20.877Z,101014
2017-06-20T06:32:49.847Z,101027
2017-06-20T06:35:18.030Z,101014
2017-06-20T06:37:46.642Z,101026
2017-06-20T06:40:15.602Z,101026
2017-06-20T06:42:43.766Z,101025
2017-06-20T06:45:12.359Z,101021
2017-06-20T06:47:40.523Z,101014
2017-06-20T06:50:08.750Z,101024
2017-06-20T06:52:38.133Z,101028
2017-06-20T06:55:06.374Z,101039
2017-06-20T06:57:34.618Z,101034
2017-06-20T07:00:03.189Z,101034
2017-06-20T07:02:31.372Z,101045
2017-06-20T07:04:59.661Z,101034
2017-06-20T07:07:28.378Z,101043
2017-06-20T07:09:57.361Z,101053
2017-06-20T07:12:25.542Z,101044
2017-06-20T07:14:54.332Z,101046
2017-06-20T07:17:22.525Z,101051
2017-06-20T07:19:50.691Z,101053
2017-06-20T07:22:19.307Z,101056
2017-06-20T07:24:47.691Z,101052
2017-06-20T07:27:15.913Z,101057
2017-06-20T07:29:44.494Z,101047
2017-06-20T07:32:12.670Z,101060
2017-06-20T07:34:40.873Z,101063
2017-06-20T07:37:10.222Z,101058
2017-06-20T07:39:38.417Z,101073
2017-06-20T07:42:06.600Z,101075
2017-06-20T07:44:35.184Z,101071
2017-06-20T07:47:03.351Z,101079
2017-06-20T07:49:31.700Z,101083
2017-06-20T07:52:00.441Z,101078
2017-06-20T07:54:29.542Z,101082
2017-06-20T07:56:58.546Z,101076
2017-06-20T07:59:27.173Z,101081
2017-06-20T08:01:55.425Z,101079
2017-06-20T08:04:23.638Z,101085
2017-06-20T08:06:52.210Z,101088
2017-06-20T08:09:20.401Z,101088
2017-06-20T08:11:48.574Z,101089
2017-06-20T08:14:17.726Z,101090
2017-06-20T08:16:45.966Z,101086
2017-06-20T08:19:14.898Z,101084
2017-06-20T08:21:49.058Z,101088
2017-06-20T08:24:18.000Z,101085
2017-06-20T08:26:46.182Z,101091
2017-06-20T08:29:14.788Z,101092
2017-06-20T08:31:42.972Z,101088
2017-06-20T08:34:11.190Z,101095
2017-06-20T08:36:39.797Z,101091
2017-06-20T08:39:07.968Z,101084
2017-06-20T08:41:36.148Z,101084
2017-06-20T08:44:04.731Z,101090
2017-06-20T08:46:32.923Z,101094
2017-06-20T08:49:01.104Z,101099
2017-06-20T08:51:29.692Z,101094
2017-06-20T08:53:57.862Z,101099
2017-06-20T08:56:26.194Z,101101
2017-06-20T08:58:54.692Z,101087
2017-06-20T09:01:22.882Z,101082
2017-06-20T09:03:51.054Z,101094
2017-06-20T09:06:19.610Z,101086
2017-06-20T09:08:47.817Z,101087
2017-06-20T09:11:15.975Z,101099
2017-06-20T09:13:44.577Z,101108
2017-06-20T09:16:12.759Z,101106
2017-06-20T09:18:40.980Z,101109
2017-06-20T09:21:09.586Z,101102
2017-06-20T09:23:37.757Z,101107
2017-06-20T09:26:05.955Z,101105
2017-06-20T09:28:35.424Z,101117
2017-06-20T09:31:03.710Z,101118
2017-06-20T09:33:32.931Z,101114
2017-06-20T09:36:02.231Z,101115
2017-06-20T09:38:30.419Z,101125
2017-06-20T09:40:59.369Z,101108
2017-06-20T09:43:27.950Z,101108
2017-06-20T09:45:56.142Z,101125
2017-06-20T09:48:24.369Z,101122
2017-06-20T09:50:52.986Z,101126
2017-06-20T09:53:21.174Z,101131
2017-06-20T09:55:49.398Z,101137
2017-06-20T09:58:18.023Z,101133
2017-06-20T10:00:46.206Z,101139
2017-06-20T10:03:14.434Z,101132
2017-06-20T10:05:43.042Z,101127
2017-06-20T10:08:11.287Z,101133
2017-06-20T10:10:39.500Z,101134
2017-06-20T10:13:08.151Z,101130
2017-06-20T10:15:36.374Z,101136
2017-06-20T10:18:04.563Z,101131
2017-06-20T10:20:33.869Z,101129
2017-06-20T10:23:02.828Z,101137
2017-06-20T10:25:31.006Z,101133
2017-06-20T10:27:59.554Z,101138
2017-06-20T10:30:27.771Z,101152
2017-06-20T10:32:55.927Z,101142
2017-06-20T10:35:24.496Z,101154
2017-06-20T10:37:52.657Z,101146
2017-06-20T10:40:20.833Z,101142
2017-06-20T10:42:49.402Z,101144
2017-06-20T10:45:17.586Z,101143
2017-06-20T10:47:45.797Z,101139
2017-06-20T10:50:14.342Z,101138
2017-06-20T10:52:42.523Z,101141
2017-06-20T10:55:10.725Z,101134
2017-06-20T10:57:40.199Z,101139
2017-06-20T11:00:08.399Z,101137
2017-06-20T11:02:36.620Z,101138
2017-06-20T11:05:05.994Z,101134
2017-06-20T11:07:34.374Z,101132
2017-06-20T11:10:03.337Z,101149
2017-06-20T11:12:31.999Z,101140
2017-06-20T11:15:00.209Z,101137
2017-06-20T11:17:29.162Z,101136
2017-06-20T11:19:57.674Z,101137
2017-06-20T11:22:25.842Z,101135
2017-06-20T11:24:54.067Z,101136
2017-06-20T11:27:22.609Z,101134
2017-06-20T11:29:51.558Z,101136
2017-06-20T11:32:19.922Z,101139
2017-06-20T11:34:48.608Z,101136
2017-06-20T11:37:16.821Z,101137
2017-06-20T11:39:44.994Z,101141
2017-06-20T11:42:13.506Z,101137
2017-06-20T11:44:42.556Z,101133
2017-06-20T11:47:10.717Z,101129
2017-06-20T11:49:39.309Z,101129
2017-06-20T11:52:07.490Z,101132
2017-06-20T11:54:35.866Z,101128
2017-06-20T11:57:04.449Z,101139
2017-06-20T11:59:32.631Z,101130
2017-06-20T12:02:00.830Z,101133
2017-06-20T12:04:30.190Z,101140
2017-06-20T12:06:58.367Z,101135
2017-06-20T12:09:26.544Z,101144
2017-06-20T12:11:55.121Z,101134
2017-06-20T12:14:23.341Z,101133
2017-06-20T12:16:51.535Z,101131
2017-06-20T12:19:20.959Z,101132
2017-06-20T12:21:49.154Z,101132
2017-06-20T12:24:17.349Z,101128
2017-06-20T12:26:46.715Z,101133
2017-06-20T12:29:14.905Z,101126
2017-06-20T12:31:43.156Z,101128
2017-06-20T12:34:11.763Z,101115
2017-06-20T12:36:39.975Z,101129
2017-06-20T12:39:08.241Z,101121
2017-06-20T12:41:36.838Z,101125
2017-06-20T12:44:05.054Z,101123
2017-06-20T12:46:33.258Z,101113
2017-06-20T12:49:02.804Z,101116
2017-06-20T12:51:31.092Z,101123
2017-06-20T12:54:01.438Z,101117
2017-06-20T12:56:30.009Z,101109
2017-06-20T12:58:58.270Z,101113
2017-06-20T13:01:26.482Z,101117
2017-06-20T13:03:55.038Z,101116
2017-06-20T13:06:23.210Z,101113
2017-06-20T13:08:51.396Z,101118
2017-06-20T13:11:19.971Z,101101
2017-06-20T13:13:48.142Z,101112
2017-06-20T13:16:16.355Z,101118
2017-06-20T13:18:45.798Z,101114
2017-06-20T13:21:14.010Z,101117
2017-06-20T13:23:42.185Z,101109
2017-06-20T13:26:11.691Z,101114
2017-06-20T13:28:40.050Z,101113
2017-06-20T13:31:08.301Z,101124
2017-06-20T13:33:36.914Z,101122
2017-06-20T13:36:05.129Z,101117
2017-06-20T13:38:33.317Z,101121
2017-06-20T13:41:01.969Z,101121
2017-06-20T13:43:30.954Z,101124
2017-06-20T13:45:59.119Z,101116
2017-06-20T13:48:27.687Z,101125
2017-06-20T13:50:55.848Z,101123
2017-06-20T13:53:24.174Z,101122
2017-06-20T13:55:53.556Z,101126
2017-06-20T13:58:21.835Z,101125
2017-06-20T14:00:50.021Z,101125
2017-06-20T14:03:19.376Z,101131
2017-06-20T14:05:47.587Z,101125
2017-06-20T14:08:15.789Z,101125
2017-06-20T14:10:44.432Z,101132
2017-06-20T14:13:12.610Z,101133
2017-06-20T14:15:41.574Z,101133
2017-06-20T14:18:10.242Z,101123
2017-06-20T14:20:38.432Z,101132
2017-06-20T14:23:06.635Z,101133
2017-06-20T14:25:35.139Z,101135
2017-06-20T14:28:04.092Z,101131
2017-06-20T14:30:32.279Z,101129
2017-06-20T14:33:00.841Z,101144
2017-06-20T14:35:29.057Z,101136
2017-06-20T14:37:58.022Z,101133
2017-06-20T14:40:26.528Z,101141
2017-06-20T14:42:55.557Z,101132
2017-06-20T14:45:23.727Z,101135
2017-06-20T14:47:54.034Z,101146
2017-06-20T14:50:22.276Z,101129
2017-06-20T14:52:50.501Z,101143
2017-06-20T14:55:19.057Z,101123
2017-06-20T14:57:47.300Z,101137
2017-06-20T15:00:15.494Z,101141
2017-06-20T15:02:44.934Z,101128
2017-06-20T15:05:13.127Z,101142
2017-06-20T15:07:41.378Z,101134
2017-06-20T15:10:09.931Z,101134
2017-06-20T15:12:38.903Z,101130
2017-06-20T15:15:07.107Z,101124
2017-06-20T15:17:35.679Z,101124
2017-06-20T15:20:04.667Z,101137
2017-06-20T15:22:33.690Z,101138
2017-06-20T15:25:02.296Z,101137
2017-06-20T15:27:30.515Z,101135
2017-06-20T15:29:59.535Z,101136
2017-06-20T15:32:28.193Z,101146
2017-06-20T15:34:57.178Z,101141
2017-06-20T15:37:26.123Z,101143
2017-06-20T15:39:54.715Z,101136
2017-06-20T15:42:22.934Z,101134
2017-06-20T15:44:51.890Z,101137
2017-06-20T15:47:20.428Z,101144
2017-06-20T15:49:48.624Z,101139
2017-06-20T15:52:16.783Z,101137
2017-06-20T15:54:45.417Z,101135
2017-06-20T15:57:13.651Z,101154
2017-06-20T15:59:41.861Z,101141
2017-06-20T16:02:10.491Z,101138
2017-06-20T16:04:38.698Z,101139
2017-06-20T16:07:06.903Z,101148
2017-06-20T16:09:35.444Z,101151
2017-06-20T16:12:03.623Z,101150
2017-06-20T16:14:31.830Z,101153
2017-06-20T16:17:00.407Z,101150
2017-06-20T16:19:28.605Z,101152
2017-06-20T16:21:56.796Z,101144
2017-06-20T16:24:25.428Z,101152
2017-06-20T16:26:53.668Z,101141
2017-06-20T16:29:21.846Z,101151
2017-06-20T16:31:50.466Z,101142
2017-06-20T16:34:18.689Z,101141
2017-06-20T16:36:46.939Z,101142
2017-06-20T16:39:16.387Z,101153
2017-06-20T16:41:44.568Z,101155
2017-06-20T16:44:12.862Z,101150
2017-06-20T16:46:41.445Z,101156
2017-06-20T16:49:09.722Z,101152
2017-06-20T16:51:37.935Z,101155
2017-06-20T16:54:06.494Z,101152
2017-06-20T16:56:34.691Z,101146
2017-06-20T16:59:02.930Z,101155
2017-06-20T17:01:31.514Z,101163
2017-06-20T17:04:00.513Z,101161
2017-06-20T17:06:28.689Z,101159
2017-06-20T17:08:58.055Z,101156
2017-06-20T17:11:26.240Z,101162
2017-06-20T17:13:54.415Z,101159
2017-06-20T17:16:23.029Z,101153
2017-06-20T17:18:52.174Z,101157
2017-06-20T17:21:20.376Z,101163
2017-06-20T17:23:49.004Z,101164
2017-06-20T17:26:17.275Z,101159
2017-06-20T17:28:45.495Z,101158
2017-06-20T17:31:14.179Z,101159
2017-06-20T17:33:42.409Z,101159
2017-06-20T17:36:11.540Z,101154
2017-06-20T17:38:40.061Z,101155
2017-06-20T17:41:09.056Z,101169
2017-06-20T17:43:38.085Z,101171
2017-06-20T17:46:06.731Z,101176
2017-06-20T17:48:35.821Z,101172
2017-06-20T17:51:04.802Z,101176
2017-06-20T17:53:33.332Z,101177
2017-06-20T17:56:01.584Z,101180
2017-06-20T17:58:30.006Z,101183
2017-06-20T18:00:59.307Z,101182
2017-06-20T18:03:27.509Z,101196
2017-06-20T18:05:55.725Z,101183
2017-06-20T18:08:24.261Z,101181
2017-06-20T18:10:52.476Z,101186
2017-06-20T18:13:21.370Z,101180
2017-06-20T18:15:50.024Z,101182
2017-06-20T18:18:19.017Z,101199
2017-06-20T18:20:47.246Z,101187
2017-06-20T18:23:17.614Z,101197
2017-06-20T18:25:45.987Z,101193
2017-06-20T18:28:14.234Z,101192
2017-06-20T18:30:42.956Z,101208
2017-06-20T18:33:11.209Z,101209
2017-06-20T18:35:39.407Z,101211
2017-06-20T18:38:08.059Z,101218
2017-06-20T18:40:36.307Z,101211
2017-06-20T18:43:04.507Z,101214
2017-06-20T18:45:33.069Z,101224
2017-06-20T18:48:02.224Z,101233
2017-06-20T18:50:31.206Z,101218
2017-06-20T18:53:00.632Z,101227
2017-06-20T18:55:28.872Z,101235
2017-06-20T18:57:57.111Z,101236
2017-06-20T19:00:25.923Z,101230
2017-06-20T19:02:54.161Z,101235
2017-06-20T19:05:22.440Z,101232
2017-06-20T19:07:51.061Z,101242
2017-06-20T19:10:19.289Z,101236
2017-06-20T19:12:47.532Z,101239
2017-06-20T19:15:16.176Z,101238
2017-06-20T19:17:44.431Z,101244
2017-06-20T19:20:12.656Z,101241
2017-06-20T19:22:41.331Z,101253
2017-06-20T19:25:09.593Z,101253
2017-06-20T19:27:37.824Z,101248
2017-06-20T19:30:06.457Z,101249
2017-06-20T19:32:34.793Z,101263
2017-06-20T19:35:03.074Z,101256
2017-06-20T19:37:31.672Z,101263
2017-06-20T19:39:59.872Z,101260
2017-06-20T19:42:28.111Z,101265
2017-06-20T19:44:56.836Z,101270
2017-06-20T19:47:25.048Z,101260
2017-06-20T19:49:53.296Z,101276
2017-06-20T19:52:22.670Z,101274
2017-06-20T19:54:50.973Z,101275
2017-06-20T19:57:19.916Z,101282
2017-06-20T19:59:48.469Z,101283
2017-06-20T20:02:16.706Z,101278
2017-06-20T20:04:44.946Z,101270
2017-06-20T20:07:13.519Z,101281
2017-06-20T20:09:41.808Z,101289
2017-06-20T20:12:10.032Z,101283
2017-06-20T20:14:39.462Z,101294
2017-06-20T20:17:07.740Z,101291
2017-06-20T20:19:36.073Z,101296
2017-06-20T20:22:04.593Z,101292
2017-06-20T20:24:32.813Z,101295
2017-06-20T20:27:01.062Z,101286
2017-06-20T20:29:29.609Z,101296
2017-06-20T20:31:57.848Z,101297
2017-06-20T20:34:26.045Z,101294
2017-06-20T20:36:54.597Z,101302
2017-06-20T20:39:23.606Z,101298
2017-06-20T20:41:52.638Z,101303
2017-06-20T20:44:21.258Z,101287
2017-06-20T20:46:49.474Z,101299
2017-06-20T20:49:18.441Z,101298
2017-06-20T20:51:47.005Z,101302
2017-06-20T20:54:15.424Z,101310
2017-06-20T20:56:44.456Z,101301
2017-06-20T20:59:12.998Z,101297
2017-06-20T21:01:41.956Z,101291
2017-06-20T21:04:10.162Z,101292
2017-06-20T21:06:39.532Z,101293
2017-06-20T21:09:07.742Z,101292
2017-06-20T21:11:36.705Z,101288
2017-06-20T21:14:05.275Z,101277
2017-06-20T21:16:33.523Z,101276
2017-06-20T21:19:01.792Z,101285
2017-06-20T21:21:30.487Z,101284
2017-06-20T21:23:58.652Z,101275
2017-06-20T21:26:26.854Z,101282
2017-06-20T21:28:55.386Z,101274
2017-06-20T21:31:23.573Z,101282
2017-06-20T21:33:51.830Z,101280
2017-06-20T21:36:21.182Z,101288
2017-06-20T21:38:49.356Z,101286
2017-06-20T21:41:17.571Z,101282
2017-06-20T21:43:47.041Z,101293
2017-06-20T21:46:15.257Z,101285
2017-06-20T21:48:43.438Z,101282
2017-06-20T21:51:12.075Z,101282
2017-06-20T21:53:40.258Z,101282
2017-06-20T21:56:08.714Z,101284
2017-06-20T21:58:37.228Z,101286
2017-06-20T22:01:06.186Z,101290
2017-06-20T22:03:34.443Z,101285
2017-06-20T22:06:03.072Z,101275
2017-06-20T22:08:31.295Z,101273
2017-06-20T22:10:59.514Z,101270
2017-06-20T22:13:28.076Z,101270
2017-06-20T22:15:56.252Z,101269
2017-06-20T22:18:24.427Z,101272
2017-06-20T22:20:53.011Z,101258
2017-06-20T22:23:21.222Z,101263
2017-06-20T22:25:49.420Z,101273
2017-06-20T22:28:17.981Z,101271
2017-06-20T22:30:46.948Z,101276
2017-06-20T22:33:15.133Z,101279
2017-06-20T22:35:44.575Z,101275
2017-06-20T22:38:12.853Z,101274
2017-06-20T22:40:41.029Z,101264
2017-06-20T22:43:09.626Z,101277
2017-06-20T22:45:37.836Z,101269
2017-06-20T22:48:06.958Z,101270
2017-06-20T22:50:35.474Z,101262
2017-06-20T22:53:03.695Z,101268
2017-06-20T22:55:32.710Z,101262
2017-06-20T22:58:01.219Z,101265
2017-06-20T23:00:29.500Z,101271
2017-06-20T23:02:57.692Z,101271
2017-06-20T23:05:26.314Z,101273
2017-06-20T23:07:54.502Z,101273
2017-06-20T23:10:22.696Z,101271
2017-06-20T23:12:51.318Z,101279
2017-06-20T23:15:20.109Z,101283
2017-06-20T23:17:48.321Z,101274
2017-06-20T23:20:16.846Z,101282
2017-06-20T23:22:45.068Z,101295
2017-06-20T23:25:13.245Z,101287
2017-06-20T23:27:41.789Z,101291
2017-06-20T23:30:09.954Z,101300
2017-06-20T23:32:38.133Z,101296
2017-06-20T23:35:06.639Z,101296
2017-06-20T23:37:34.806Z,101291
2017-06-20T23:40:03.790Z,101296
2017-06-20T23:42:33.155Z,101294
2017-06-20T23:45:01.349Z,101290
2017-06-20T23:47:29.532Z,101295
2017-06-20T23:49:58.961Z,101290
2017-06-20T23:52:27.154Z,101287
2017-06-20T23:54:55.430Z,101281
2017-06-20T23:57:24.029Z,101292
2017-06-20T23:59:52.203Z,101285
